sensor_id;sensor_type;location;lat;lon;timestamp;pressure;altitude;pressure_sealevel;temperature;humidity
33731;BME280;22931;48.636;9.000;2023-08-21T00:12:31;96611.28;;;26.18;56.08
33731;BME280;22931;48.636;9.000;2023-08-21T00:17:39;96610.03;;;26.03;54.74
33731;BME280;22931;48.636;9.000;2023-08-21T00:22:47;96604.78;;;25.96;55.64
33731;BME280;22931;48.636;9.000;2023-08-21T00:39:48;96593.91;;;25.99;56.63
33731;BME280;22931;48.636;9.000;2023-08-21T00:44:55;96590.88;;;25.97;55.92
33731;BME280;22931;48.636;9.000;2023-08-21T00:50:07;96598.56;;;25.99;56.41
33731;BME280;22931;48.636;9.000;2023-08-21T00:55:19;96588.13;;;26.01;57.34
33731;BME280;22931;48.636;9.000;2023-08-21T01:00:35;96586.09;;;26.05;57.26
33731;BME280;22931;48.636;9.000;2023-08-21T01:16:29;96587.97;;;26.08;57.28
33731;BME280;22931;48.636;9.000;2023-08-21T01:21:38;96586.59;;;26.00;56.98
33731;BME280;22931;48.636;9.000;2023-08-21T01:27:19;96586.25;;;25.98;57.22
33731;BME280;22931;48.636;9.000;2023-08-21T01:32:37;96588.47;;;25.83;57.29
33731;BME280;22931;48.636;9.000;2023-08-21T01:37:47;96591.44;;;25.69;56.58
33731;BME280;22931;48.636;9.000;2023-08-21T01:42:58;96596.22;;;25.62;57.87
33731;BME280;22931;48.636;9.000;2023-08-21T02:04:49;96569.06;;;25.29;58.69
33731;BME280;22931;48.636;9.000;2023-08-21T02:09:59;96573.91;;;25.18;57.96
33731;BME280;22931;48.636;9.000;2023-08-21T02:15:08;96579.75;;;25.13;57.48
33731;BME280;22931;48.636;9.000;2023-08-21T02:32:40;96580.88;;;24.92;58.56
33731;BME280;22931;48.636;9.000;2023-08-21T02:37:48;96584.09;;;24.84;57.92
33731;BME280;22931;48.636;9.000;2023-08-21T02:42:55;96579.59;;;24.74;58.59
33731;BME280;22931;48.636;9.000;2023-08-21T03:06:03;96588.16;;;24.69;58.49
33731;BME280;22931;48.636;9.000;2023-08-21T03:11:11;96580.50;;;24.67;58.60
33731;BME280;22931;48.636;9.000;2023-08-21T03:16:19;96586.59;;;24.68;59.01
33731;BME280;22931;48.636;9.000;2023-08-21T03:38:39;96586.78;;;24.57;58.46
33731;BME280;22931;48.636;9.000;2023-08-21T03:43:50;96585.03;;;24.47;58.29
33731;BME280;22931;48.636;9.000;2023-08-21T03:48:58;96579.38;;;24.38;58.50
33731;BME280;22931;48.636;9.000;2023-08-21T04:10:52;96604.75;;;24.10;60.30
33731;BME280;22931;48.636;9.000;2023-08-21T04:16:04;96605.53;;;24.07;59.41
33731;BME280;22931;48.636;9.000;2023-08-21T04:39:00;96616.31;;;24.07;60.74
33731;BME280;22931;48.636;9.000;2023-08-21T04:44:08;96615.56;;;24.03;60.09
33731;BME280;22931;48.636;9.000;2023-08-21T05:11:14;96628.66;;;24.01;61.71
33731;BME280;22931;48.636;9.000;2023-08-21T05:16:21;96634.38;;;24.07;60.91
33731;BME280;22931;48.636;9.000;2023-08-21T05:44:02;96652.25;;;24.51;61.83
33731;BME280;22931;48.636;9.000;2023-08-21T05:49:10;96651.31;;;24.61;61.67
33731;BME280;22931;48.636;9.000;2023-08-21T05:54:20;96650.75;;;24.73;61.79
33731;BME280;22931;48.636;9.000;2023-08-21T06:11:38;96650.44;;;25.21;61.80
33731;BME280;22931;48.636;9.000;2023-08-21T06:16:49;96651.78;;;25.32;61.34
33731;BME280;22931;48.636;9.000;2023-08-21T06:21:59;96651.56;;;25.46;62.15
33731;BME280;22931;48.636;9.000;2023-08-21T06:27:11;96656.31;;;25.62;62.15
33731;BME280;22931;48.636;9.000;2023-08-21T06:56:18;96671.38;;;26.38;61.52
33731;BME280;22931;48.636;9.000;2023-08-21T07:01:29;96674.97;;;26.51;60.42
33731;BME280;22931;48.636;9.000;2023-08-21T07:06:52;96668.09;;;26.66;60.79
33731;BME280;22931;48.636;9.000;2023-08-21T07:12:04;96675.91;;;26.80;60.66
33731;BME280;22931;48.636;9.000;2023-08-21T07:17:13;96667.56;;;26.91;60.19
33731;BME280;22931;48.636;9.000;2023-08-21T07:22:22;96676.50;;;27.04;60.51
33731;BME280;22931;48.636;9.000;2023-08-21T07:27:34;96671.19;;;27.17;59.96
33731;BME280;22931;48.636;9.000;2023-08-21T07:32:43;96675.91;;;27.29;59.88
33731;BME280;22931;48.636;9.000;2023-08-21T07:37:51;96685.56;;;27.46;59.19
33731;BME280;22931;48.636;9.000;2023-08-21T07:43:09;96686.72;;;27.61;59.07
33731;BME280;22931;48.636;9.000;2023-08-21T07:48:17;96687.56;;;27.74;58.73
33731;BME280;22931;48.636;9.000;2023-08-21T07:53:26;96690.19;;;27.90;59.45
33731;BME280;22931;48.636;9.000;2023-08-21T07:58:39;96689.00;;;28.07;58.14
33731;BME280;22931;48.636;9.000;2023-08-21T08:03:56;96681.69;;;28.21;58.55
33731;BME280;22931;48.636;9.000;2023-08-21T08:09:04;96690.91;;;28.36;58.73
33731;BME280;22931;48.636;9.000;2023-08-21T08:14:15;96687.81;;;28.50;58.17
33731;BME280;22931;48.636;9.000;2023-08-21T08:19:23;96688.25;;;28.61;58.39
33731;BME280;22931;48.636;9.000;2023-08-21T08:24:31;96688.69;;;28.72;57.89
33731;BME280;22931;48.636;9.000;2023-08-21T08:29:41;96691.72;;;28.87;57.94
33731;BME280;22931;48.636;9.000;2023-08-21T08:34:54;96690.22;;;28.98;56.73
33731;BME280;22931;48.636;9.000;2023-08-21T08:40:06;96683.16;;;29.13;56.61
33731;BME280;22931;48.636;9.000;2023-08-21T08:45:28;96687.28;;;29.30;56.34
33731;BME280;22931;48.636;9.000;2023-08-21T08:50:43;96693.44;;;29.43;57.11
33731;BME280;22931;48.636;9.000;2023-08-21T08:55:53;96680.84;;;29.50;56.14
33731;BME280;22931;48.636;9.000;2023-08-21T09:01:09;96690.56;;;29.60;55.23
33731;BME280;22931;48.636;9.000;2023-08-21T09:06:20;96689.13;;;29.68;55.48
33731;BME280;22931;48.636;9.000;2023-08-21T09:11:28;96690.00;;;29.77;55.88
33731;BME280;22931;48.636;9.000;2023-08-21T09:16:59;96688.50;;;29.98;55.25
33731;BME280;22931;48.636;9.000;2023-08-21T09:22:09;96685.53;;;30.05;55.39
33731;BME280;22931;48.636;9.000;2023-08-21T09:27:17;96683.66;;;30.15;55.65
33731;BME280;22931;48.636;9.000;2023-08-21T09:32:28;96680.53;;;30.25;54.80
33731;BME280;22931;48.636;9.000;2023-08-21T09:37:35;96690.63;;;30.37;55.45
33731;BME280;22931;48.636;9.000;2023-08-21T09:42:43;96682.81;;;30.48;55.06
33731;BME280;22931;48.636;9.000;2023-08-21T09:47:55;96681.38;;;30.65;54.74
33731;BME280;22931;48.636;9.000;2023-08-21T09:53:06;96682.06;;;30.79;54.76
33731;BME280;22931;48.636;9.000;2023-08-21T09:58:13;96680.31;;;30.94;54.10
33731;BME280;22931;48.636;9.000;2023-08-21T10:03:25;96677.78;;;31.08;52.78
33731;BME280;22931;48.636;9.000;2023-08-21T10:08:37;96672.06;;;31.15;53.09
33731;BME280;22931;48.636;9.000;2023-08-21T10:13:45;96679.19;;;31.22;52.87
33731;BME280;22931;48.636;9.000;2023-08-21T10:19:02;96670.75;;;31.38;51.99
33731;BME280;22931;48.636;9.000;2023-08-21T10:24:26;96664.91;;;31.49;49.06
33731;BME280;22931;48.636;9.000;2023-08-21T10:29:33;96660.22;;;31.49;51.07
33731;BME280;22931;48.636;9.000;2023-08-21T10:34:51;96651.31;;;31.58;49.96
33731;BME280;22931;48.636;9.000;2023-08-21T10:39:59;96644.97;;;31.61;51.65
33731;BME280;22931;48.636;9.000;2023-08-21T10:45:12;96646.78;;;31.73;50.56
33731;BME280;22931;48.636;9.000;2023-08-21T10:50:25;96649.03;;;31.74;50.68
33731;BME280;22931;48.636;9.000;2023-08-21T10:55:33;96647.53;;;31.73;51.11
33731;BME280;22931;48.636;9.000;2023-08-21T11:00:40;96646.16;;;31.78;51.09
33731;BME280;22931;48.636;9.000;2023-08-21T11:06:03;96643.13;;;31.94;50.74
33731;BME280;22931;48.636;9.000;2023-08-21T11:11:12;96645.84;;;31.94;50.24
33731;BME280;22931;48.636;9.000;2023-08-21T11:16:21;96640.69;;;31.96;50.48
33731;BME280;22931;48.636;9.000;2023-08-21T11:21:33;96642.69;;;32.05;50.24
33731;BME280;22931;48.636;9.000;2023-08-21T11:26:41;96640.72;;;32.05;50.29
33731;BME280;22931;48.636;9.000;2023-08-21T11:31:49;96648.28;;;32.01;49.68
33731;BME280;22931;48.636;9.000;2023-08-21T11:36:59;96643.00;;;31.98;49.58
33731;BME280;22931;48.636;9.000;2023-08-21T11:42:09;96644.03;;;31.91;49.28
33731;BME280;22931;48.636;9.000;2023-08-21T11:47:20;96641.16;;;31.85;48.95
33731;BME280;22931;48.636;9.000;2023-08-21T11:52:30;96630.72;;;31.84;48.97
33731;BME280;22931;48.636;9.000;2023-08-21T11:57:50;96634.19;;;31.84;47.57
33731;BME280;22931;48.636;9.000;2023-08-21T12:03:00;96627.56;;;31.85;49.60
33731;BME280;22931;48.636;9.000;2023-08-21T12:08:15;96622.38;;;31.96;49.24
33731;BME280;22931;48.636;9.000;2023-08-21T12:13:23;96620.00;;;32.08;49.34
33731;BME280;22931;48.636;9.000;2023-08-21T12:18:34;96615.84;;;32.21;48.93
33731;BME280;22931;48.636;9.000;2023-08-21T12:23:44;96615.19;;;32.35;48.26
33731;BME280;22931;48.636;9.000;2023-08-21T12:28:52;96608.38;;;32.40;47.60
33731;BME280;22931;48.636;9.000;2023-08-21T12:34:00;96597.59;;;32.45;47.91
33731;BME280;22931;48.636;9.000;2023-08-21T12:39:11;96593.50;;;32.50;46.83
33731;BME280;22931;48.636;9.000;2023-08-21T12:44:20;96591.22;;;32.57;48.16
33731;BME280;22931;48.636;9.000;2023-08-21T12:49:28;96588.00;;;32.68;47.41
33731;BME280;22931;48.636;9.000;2023-08-21T12:54:45;96585.78;;;32.81;46.50
33731;BME280;22931;48.636;9.000;2023-08-21T12:59:52;96576.22;;;32.86;46.71
33731;BME280;22931;48.636;9.000;2023-08-21T13:05:00;96576.19;;;32.95;46.16
33731;BME280;22931;48.636;9.000;2023-08-21T13:10:13;96570.97;;;33.06;46.92
33731;BME280;22931;48.636;9.000;2023-08-21T13:15:20;96577.47;;;33.08;46.65
33731;BME280;22931;48.636;9.000;2023-08-21T13:20:28;96571.25;;;33.08;46.61
33731;BME280;22931;48.636;9.000;2023-08-21T13:25:41;96558.19;;;33.12;46.73
33731;BME280;22931;48.636;9.000;2023-08-21T13:30:52;96569.81;;;33.21;46.88
33731;BME280;22931;48.636;9.000;2023-08-21T13:36:00;96565.94;;;33.28;46.45
33731;BME280;22931;48.636;9.000;2023-08-21T13:41:10;96563.72;;;33.41;45.95
33731;BME280;22931;48.636;9.000;2023-08-21T13:46:22;96553.66;;;33.47;44.74
33731;BME280;22931;48.636;9.000;2023-08-21T13:51:30;96550.00;;;33.50;46.26
33731;BME280;22931;48.636;9.000;2023-08-21T13:56:40;96550.13;;;33.56;45.47
33731;BME280;22931;48.636;9.000;2023-08-21T14:01:48;96552.66;;;33.59;45.55
33731;BME280;22931;48.636;9.000;2023-08-21T14:06:55;96542.78;;;33.62;45.35
33731;BME280;22931;48.636;9.000;2023-08-21T14:12:08;96531.69;;;33.65;44.32
33731;BME280;22931;48.636;9.000;2023-08-21T14:17:16;96539.78;;;33.60;45.31
33731;BME280;22931;48.636;9.000;2023-08-21T14:22:26;96543.25;;;33.60;45.08
33731;BME280;22931;48.636;9.000;2023-08-21T14:27:36;96537.31;;;33.62;44.21
33731;BME280;22931;48.636;9.000;2023-08-21T14:32:44;96533.38;;;33.63;45.46
33731;BME280;22931;48.636;9.000;2023-08-21T14:37:52;96526.78;;;33.69;45.15
33731;BME280;22931;48.636;9.000;2023-08-21T14:43:02;96525.66;;;33.76;44.68
33731;BME280;22931;48.636;9.000;2023-08-21T14:48:10;96523.94;;;33.78;44.63
33731;BME280;22931;48.636;9.000;2023-08-21T14:53:18;96520.00;;;33.79;44.38
33731;BME280;22931;48.636;9.000;2023-08-21T14:58:32;96512.28;;;33.78;44.17
33731;BME280;22931;48.636;9.000;2023-08-21T15:03:42;96513.78;;;33.79;44.69
33731;BME280;22931;48.636;9.000;2023-08-21T15:08:49;96512.00;;;33.76;43.85
33731;BME280;22931;48.636;9.000;2023-08-21T15:14:03;96507.75;;;33.75;43.78
33731;BME280;22931;48.636;9.000;2023-08-21T15:19:19;96499.56;;;33.75;44.22
33731;BME280;22931;48.636;9.000;2023-08-21T15:24:35;96501.06;;;33.76;43.89
33731;BME280;22931;48.636;9.000;2023-08-21T15:29:49;96485.34;;;33.71;43.88
33731;BME280;22931;48.636;9.000;2023-08-21T15:34:57;96483.56;;;33.68;42.99
33731;BME280;22931;48.636;9.000;2023-08-21T15:40:07;96487.50;;;33.67;43.56
33731;BME280;22931;48.636;9.000;2023-08-21T15:45:17;96484.31;;;33.68;43.42
33731;BME280;22931;48.636;9.000;2023-08-21T15:50:28;96480.25;;;33.64;42.95
33731;BME280;22931;48.636;9.000;2023-08-21T15:55:35;96470.09;;;33.64;43.14
33731;BME280;22931;48.636;9.000;2023-08-21T16:00:46;96464.44;;;33.68;42.95
33731;BME280;22931;48.636;9.000;2023-08-21T16:05:54;96464.19;;;33.66;43.45
33731;BME280;22931;48.636;9.000;2023-08-21T16:11:01;96461.44;;;33.66;43.38
33731;BME280;22931;48.636;9.000;2023-08-21T16:16:12;96457.47;;;33.67;43.08
33731;BME280;22931;48.636;9.000;2023-08-21T16:21:22;96449.94;;;33.62;43.39
33731;BME280;22931;48.636;9.000;2023-08-21T16:26:30;96450.88;;;33.59;43.16
33731;BME280;22931;48.636;9.000;2023-08-21T16:31:42;96452.41;;;33.60;43.26
33731;BME280;22931;48.636;9.000;2023-08-21T16:36:49;96454.63;;;33.76;42.86
33731;BME280;22931;48.636;9.000;2023-08-21T16:41:57;96460.03;;;33.56;43.40
33731;BME280;22931;48.636;9.000;2023-08-21T16:47:08;96458.38;;;33.49;43.28
33731;BME280;22931;48.636;9.000;2023-08-21T16:57:25;96450.28;;;33.40;43.38
33731;BME280;22931;48.636;9.000;2023-08-21T17:02:35;96459.41;;;33.37;43.75
33731;BME280;22931;48.636;9.000;2023-08-21T17:07:44;96462.53;;;33.30;43.88
33731;BME280;22931;48.636;9.000;2023-08-21T17:12:52;96458.47;;;33.25;43.70
